Time;durP1;ratioP1;P1;durP2;ratioP2;P2;SDS_P1;SDS_P2;PMS_P1;PMS_P2;Temp;Humidity;BMP_temperature;BMP_pressure;BME280_temperature;BME280_humidity;BME280_pressure;Samples;Min_cycle;Max_cycle;Signal;HPM_P1;HPM_P2
2022/09/23 00:01:34;;;;;;;9.65;5.45;;;;;;;;;;4987860;28;20398;-73
2022/09/23 00:04:00;;;;;;;11.25;6.00;;;;;;;;;;4985326;28;20592;-71
2022/09/23 00:06:29;;;;;;;7.28;5.50;;;;;;;;;;4985495;28;20044;-71
2022/09/23 00:08:55;;;;;;;9.30;6.30;;;;;;;;;;4986988;28;20073;-75
2022/09/23 00:11:23;;;;;;;8.20;6.13;;;;;;;;;;4990206;28;20034;-73
2022/09/23 00:13:51;;;;;;;14.00;6.18;;;;;;;;;;4984962;28;20046;-78
2022/09/23 00:16:21;;;;;;;7.88;6.55;;;;;;;;;;4990573;28;20121;-72
2022/09/23 00:18:51;;;;;;;9.70;5.90;;;;;;;;;;4991362;28;20049;-72
2022/09/23 00:21:18;;;;;;;11.75;6.53;;;;;;;;;;4980517;28;20490;-73
2022/09/23 00:23:44;;;;;;;10.38;6.57;;;;;;;;;;4984800;28;20025;-72
2022/09/23 00:26:12;;;;;;;10.48;6.78;;;;;;;;;;4990675;28;20035;-72
2022/09/23 00:28:39;;;;;;;10.20;6.57;;;;;;;;;;4991199;28;20042;-72
2022/09/23 00:31:09;;;;;;;12.38;7.07;;;;;;;;;;4987139;28;20053;-72
2022/09/23 00:33:36;;;;;;;10.52;7.00;;;;;;;;;;4978005;28;20037;-72
2022/09/23 00:36:03;;;;;;;11.50;7.13;;;;;;;;;;4988134;28;20026;-74
2022/09/23 00:38:29;;;;;;;8.43;6.72;;;;;;;;;;4987067;28;20030;-71
2022/09/23 00:40:55;;;;;;;12.48;7.03;;;;;;;;;;4985333;28;20498;-71
2022/09/23 00:43:37;;;;;;;12.35;8.23;;;;;;;;;;4990976;28;20067;-71
2022/09/23 00:46:03;;;;;;;9.80;7.43;;;;;;;;;;4987427;28;20037;-72
2022/09/23 00:48:29;;;;;;;14.02;8.48;;;;;;;;;;4987515;28;20054;-73
2022/09/23 00:50:55;;;;;;;17.42;7.45;;;;;;;;;;5002729;28;20042;-76
2022/09/23 00:53:23;;;;;;;10.77;7.88;;;;;;;;;;4998873;28;20031;-73
2022/09/23 00:55:54;;;;;;;11.48;7.40;;;;;;;;;;4987964;28;20033;-71
2022/09/23 00:58:26;;;;;;;16.08;8.80;;;;;;;;;;4989263;28;20040;-73
2022/09/23 01:00:52;;;;;;;11.25;8.05;;;;;;;;;;4988658;28;20038;-72
2022/09/23 01:03:18;;;;;;;13.02;8.35;;;;;;;;;;4976861;28;20027;-71
2022/09/23 01:05:45;;;;;;;10.73;8.15;;;;;;;;;;5003439;28;20030;-73
2022/09/23 01:08:12;;;;;;;12.25;8.23;;;;;;;;;;4990884;28;20026;-73
2022/09/23 01:11:08;;;;;;;14.52;8.48;;;;;;;;;;4983224;28;20418;-73
2022/09/23 01:13:52;;;;;;;13.82;8.20;;;;;;;;;;4971902;28;20051;-71
2022/09/23 01:16:21;;;;;;;11.60;8.45;;;;;;;;;;4993864;28;20035;-72
2022/09/23 01:18:47;;;;;;;12.80;8.68;;;;;;;;;;4993376;28;20120;-72
2022/09/23 01:21:28;;;;;;;14.88;8.70;;;;;;;;;;4994515;28;20442;-75
2022/09/23 01:24:13;;;;;;;14.82;9.40;;;;;;;;;;4992021;28;20038;-73
2022/09/23 01:26:48;;;;;;;14.50;9.65;;;;;;;;;;4974851;28;20034;-73
2022/09/23 01:29:32;;;;;;;13.25;8.85;;;;;;;;;;4982818;28;20030;-72
2022/09/23 01:32:01;;;;;;;11.07;9.15;;;;;;;;;;4990502;28;20153;-72
2022/09/23 01:35:03;;;;;;;12.30;9.32;;;;;;;;;;4993244;28;20031;-73
2022/09/23 01:37:35;;;;;;;15.25;8.57;;;;;;;;;;4989498;28;20026;-72
2022/09/23 01:40:05;;;;;;;12.52;9.35;;;;;;;;;;4987110;28;20062;-73
2022/09/23 01:42:38;;;;;;;11.70;8.90;;;;;;;;;;4993073;28;20497;-72
2022/09/23 01:45:16;;;;;;;9.80;8.75;;;;;;;;;;4991694;28;20034;-73
2022/09/23 01:47:55;;;;;;;11.88;9.00;;;;;;;;;;4988806;28;20809;-78
2022/09/23 01:50:56;;;;;;;12.80;9.25;;;;;;;;;;4986760;28;20113;-71
2022/09/23 01:53:28;;;;;;;13.65;8.75;;;;;;;;;;4993677;28;20749;-72
2022/09/23 01:55:56;;;;;;;17.42;9.10;;;;;;;;;;4996500;28;20081;-71
2022/09/23 01:58:41;;;;;;;10.60;8.73;;;;;;;;;;4992351;28;20058;-71
2022/09/23 02:01:08;;;;;;;10.43;8.85;;;;;;;;;;4988489;28;20100;-71
2022/09/23 02:03:43;;;;;;;15.48;10.07;;;;;;;;;;4988806;28;20331;-71
2022/09/23 02:06:09;;;;;;;16.40;9.82;;;;;;;;;;4986452;28;20114;-74
2022/09/23 02:08:42;;;;;;;13.40;9.82;;;;;;;;;;4989889;28;20126;-72
2022/09/23 02:11:10;;;;;;;12.70;9.18;;;;;;;;;;4988272;28;20057;-71
2022/09/23 02:13:38;;;;;;;12.63;9.20;;;;;;;;;;4991322;28;20086;-71
2022/09/23 02:16:07;;;;;;;13.13;9.57;;;;;;;;;;4989792;28;20041;-77
2022/09/23 02:18:55;;;;;;;12.85;9.30;;;;;;;;;;4989709;28;20027;-71
2022/09/23 02:21:23;;;;;;;12.85;9.60;;;;;;;;;;4979418;28;20039;-71
2022/09/23 02:23:52;;;;;;;13.25;9.40;;;;;;;;;;4975950;28;20068;-71
2022/09/23 02:26:20;;;;;;;13.45;9.75;;;;;;;;;;4986800;28;20030;-71
2022/09/23 02:28:55;;;;;;;19.63;9.98;;;;;;;;;;4988925;28;20057;-71
2022/09/23 02:31:29;;;;;;;14.85;9.48;;;;;;;;;;4989469;28;20046;-77
2022/09/23 02:34:12;;;;;;;17.08;10.18;;;;;;;;;;4995059;28;20030;-71
2022/09/23 02:36:43;;;;;;;11.13;9.23;;;;;;;;;;4989906;28;20037;-71
2022/09/23 02:39:12;;;;;;;11.90;9.15;;;;;;;;;;4986464;28;20042;-74
2022/09/23 02:41:44;;;;;;;15.45;9.93;;;;;;;;;;4987541;28;20081;-74
2022/09/23 02:44:15;;;;;;;16.38;10.25;;;;;;;;;;4991580;28;20034;-74
2022/09/23 02:46:44;;;;;;;14.95;10.23;;;;;;;;;;4989371;28;20568;-72
2022/09/23 02:49:18;;;;;;;12.93;9.95;;;;;;;;;;5011268;28;20172;-71
2022/09/23 02:51:44;;;;;;;14.93;10.80;;;;;;;;;;4987471;28;20042;-70
2022/09/23 02:54:13;;;;;;;12.70;10.48;;;;;;;;;;4986773;28;20030;-71
2022/09/23 02:56:40;;;;;;;17.38;11.07;;;;;;;;;;4995897;28;20037;-77
2022/09/23 02:59:07;;;;;;;14.30;10.90;;;;;;;;;;4990874;28;20378;-71
2022/09/23 03:01:51;;;;;;;13.93;11.32;;;;;;;;;;4989184;28;20038;-73
2022/09/23 03:04:20;;;;;;;12.68;9.80;;;;;;;;;;4990860;28;20439;-77
2022/09/23 03:07:02;;;;;;;14.35;11.48;;;;;;;;;;4985703;28;20037;-69
2022/09/23 03:09:28;;;;;;;18.65;12.23;;;;;;;;;;4987366;28;20037;-69
2022/09/23 03:12:13;;;;;;;20.02;13.65;;;;;;;;;;4985563;28;20031;-68
2022/09/23 03:14:43;;;;;;;16.40;11.45;;;;;;;;;;4992890;28;20113;-73
2022/09/23 03:17:18;;;;;;;15.93;11.32;;;;;;;;;;4982418;28;20034;-71
2022/09/23 03:19:49;;;;;;;18.13;12.20;;;;;;;;;;4991342;28;20030;-70
2022/09/23 03:22:22;;;;;;;16.15;11.00;;;;;;;;;;4986744;28;20042;-73
2022/09/23 03:24:49;;;;;;;14.00;10.60;;;;;;;;;;4984839;28;20085;-71
2022/09/23 03:27:17;;;;;;;18.23;11.35;;;;;;;;;;4979773;28;20629;-72
2022/09/23 03:29:48;;;;;;;14.10;11.02;;;;;;;;;;4991029;28;20070;-71
2022/09/23 03:32:15;;;;;;;12.57;10.43;;;;;;;;;;4986807;28;20129;-72
2022/09/23 03:34:42;;;;;;;18.88;12.13;;;;;;;;;;4975422;28;20031;-71
2022/09/23 03:37:21;;;;;;;16.73;11.45;;;;;;;;;;4985049;28;20062;-70
2022/09/23 03:40:07;;;;;;;16.30;12.15;;;;;;;;;;4985786;28;20038;-71
2022/09/23 03:42:33;;;;;;;12.88;10.82;;;;;;;;;;4983403;28;20501;-75
2022/09/23 03:45:00;;;;;;;17.92;11.23;;;;;;;;;;4988534;28;20522;-75
2022/09/23 03:47:27;;;;;;;16.40;11.25;;;;;;;;;;4970833;28;21006;-74
2022/09/23 03:49:55;;;;;;;16.83;11.45;;;;;;;;;;4980864;28;20038;-70
2022/09/23 03:52:22;;;;;;;16.30;10.57;;;;;;;;;;4972866;28;20042;-73
2022/09/23 03:54:49;;;;;;;16.58;11.13;;;;;;;;;;4976846;28;20069;-74
2022/09/23 03:57:15;;;;;;;15.40;11.35;;;;;;;;;;4978022;28;21914;-70
2022/09/23 03:59:42;;;;;;;16.02;10.38;;;;;;;;;;4978625;28;20486;-69
2022/09/23 04:02:08;;;;;;;12.77;10.00;;;;;;;;;;4982092;28;20099;-68
2022/09/23 04:04:39;;;;;;;16.92;12.73;;;;;;;;;;4983607;28;20548;-72
2022/09/23 04:07:05;;;;;;;12.48;10.85;;;;;;;;;;4988894;28;20382;-70
2022/09/23 04:09:31;;;;;;;18.67;12.98;;;;;;;;;;4987904;28;20060;-71
2022/09/23 04:11:57;;;;;;;18.08;11.18;;;;;;;;;;4983202;28;20181;-70
2022/09/23 04:14:24;;;;;;;13.20;9.80;;;;;;;;;;5003738;28;20037;-71
2022/09/23 04:16:50;;;;;;;14.90;10.52;;;;;;;;;;4986895;28;20133;-69
2022/09/23 04:19:16;;;;;;;16.88;11.80;;;;;;;;;;4982512;28;20026;-71
2022/09/23 04:21:42;;;;;;;16.90;12.15;;;;;;;;;;4986235;28;20069;-69
2022/09/23 04:24:09;;;;;;;12.60;10.85;;;;;;;;;;4984858;28;20235;-69
2022/09/23 04:26:36;;;;;;;15.45;12.50;;;;;;;;;;5006317;28;20508;-70
2022/09/23 04:29:03;;;;;;;20.17;11.98;;;;;;;;;;4990397;28;20481;-69
2022/09/23 04:31:30;;;;;;;21.45;12.13;;;;;;;;;;4989626;28;20053;-69
2022/09/23 04:33:56;;;;;;;17.33;12.35;;;;;;;;;;4990382;28;20031;-70
2022/09/23 04:36:23;;;;;;;16.70;11.60;;;;;;;;;;4988032;28;20497;-71
2022/09/23 04:38:49;;;;;;;21.55;12.68;;;;;;;;;;4994086;28;20048;-72
2022/09/23 04:41:16;;;;;;;19.48;13.02;;;;;;;;;;4993688;28;20110;-74
2022/09/23 04:43:42;;;;;;;19.42;12.10;;;;;;;;;;4999633;28;20157;-71
2022/09/23 04:46:09;;;;;;;16.15;11.43;;;;;;;;;;4989374;28;20034;-68
2022/09/23 04:48:36;;;;;;;15.90;11.88;;;;;;;;;;5002348;28;20040;-68
2022/09/23 04:51:06;;;;;;;13.48;11.07;;;;;;;;;;4992102;28;20124;-69
2022/09/23 04:53:33;;;;;;;19.40;12.32;;;;;;;;;;4997994;28;20026;-69
2022/09/23 04:56:19;;;;;;;15.27;11.65;;;;;;;;;;4989776;28;20347;-68
2022/09/23 04:58:45;;;;;;;19.10;11.80;;;;;;;;;;4991469;28;20036;-70
2022/09/23 05:01:25;;;;;;;18.83;13.60;;;;;;;;;;5001998;28;20054;-70
2022/09/23 05:03:52;;;;;;;21.13;13.02;;;;;;;;;;4986468;28;20026;-69
2022/09/23 05:06:19;;;;;;;19.92;13.10;;;;;;;;;;4991800;28;20027;-80
2022/09/23 05:08:50;;;;;;;15.95;12.73;;;;;;;;;;5001117;28;20442;-70
2022/09/23 05:11:17;;;;;;;15.63;12.23;;;;;;;;;;4981709;28;20426;-71
2022/09/23 05:13:43;;;;;;;14.45;11.63;;;;;;;;;;4993815;28;20084;-70
2022/09/23 05:16:11;;;;;;;15.95;11.23;;;;;;;;;;4988860;28;20034;-77
2022/09/23 05:18:42;;;;;;;14.90;12.57;;;;;;;;;;4989215;28;20088;-70
2022/09/23 05:21:09;;;;;;;18.15;12.02;;;;;;;;;;4995977;28;20030;-71
2022/09/23 05:23:36;;;;;;;14.82;12.35;;;;;;;;;;4992229;28;20042;-72
2022/09/23 05:26:04;;;;;;;15.80;12.75;;;;;;;;;;5003953;28;20026;-77
2022/09/23 05:28:31;;;;;;;14.70;11.93;;;;;;;;;;5003251;28;20363;-70
2022/09/23 05:31:04;;;;;;;18.30;12.95;;;;;;;;;;4991733;28;20053;-70
2022/09/23 05:33:31;;;;;;;16.40;12.25;;;;;;;;;;4993613;28;20030;-73
2022/09/23 05:35:57;;;;;;;19.67;13.40;;;;;;;;;;4992523;28;20101;-73
2022/09/23 05:38:23;;;;;;;19.58;12.23;;;;;;;;;;4985782;28;20038;-70
2022/09/23 05:40:56;;;;;;;17.45;12.63;;;;;;;;;;4983888;28;20085;-72
2022/09/23 05:43:22;;;;;;;16.23;12.00;;;;;;;;;;4993550;28;20386;-71
2022/09/23 05:45:48;;;;;;;14.68;11.95;;;;;;;;;;4992176;28;20038;-72
2022/09/23 05:48:14;;;;;;;18.35;12.55;;;;;;;;;;4990660;28;20125;-70
2022/09/23 05:50:48;;;;;;;21.10;12.38;;;;;;;;;;4989516;28;20042;-70
2022/09/23 05:53:14;;;;;;;17.50;12.82;;;;;;;;;;4993445;28;20033;-70
2022/09/23 05:55:40;;;;;;;15.48;12.85;;;;;;;;;;4991972;28;20018;-70
2022/09/23 05:58:06;;;;;;;18.00;12.60;;;;;;;;;;4992698;28;20471;-72
2022/09/23 06:00:32;;;;;;;15.25;12.35;;;;;;;;;;4996066;28;20454;-70
2022/09/23 06:02:58;;;;;;;15.82;11.85;;;;;;;;;;4989190;28;20152;-71
2022/09/23 06:05:24;;;;;;;15.25;12.38;;;;;;;;;;5005082;28;20026;-72
2022/09/23 06:07:50;;;;;;;15.52;11.57;;;;;;;;;;4992067;28;20037;-70
2022/09/23 06:10:16;;;;;;;13.48;11.80;;;;;;;;;;4991823;28;20031;-71
2022/09/23 06:12:43;;;;;;;15.25;11.60;;;;;;;;;;4987580;28;20123;-72
2022/09/23 06:15:10;;;;;;;18.60;12.35;;;;;;;;;;4991622;28;20048;-75
2022/09/23 06:17:37;;;;;;;15.75;11.75;;;;;;;;;;4997961;28;20069;-72
2022/09/23 06:20:03;;;;;;;16.58;12.85;;;;;;;;;;4978874;28;20034;-72
2022/09/23 06:22:29;;;;;;;13.88;11.43;;;;;;;;;;4990690;28;20061;-71
2022/09/23 06:24:55;;;;;;;16.30;12.85;;;;;;;;;;4975470;28;20382;-71
2022/09/23 06:27:21;;;;;;;15.25;12.30;;;;;;;;;;4992140;28;20033;-72
2022/09/23 06:29:51;;;;;;;18.45;11.48;;;;;;;;;;4992441;28;20057;-74
2022/09/23 06:32:18;;;;;;;15.52;11.85;;;;;;;;;;4992339;28;20038;-71
2022/09/23 06:34:44;;;;;;;17.88;11.90;;;;;;;;;;4992703;28;20026;-71
2022/09/23 06:37:11;;;;;;;13.88;11.38;;;;;;;;;;4988809;28;20042;-73
2022/09/23 06:39:37;;;;;;;15.27;12.85;;;;;;;;;;4992619;28;20022;-73
2022/09/23 06:42:05;;;;;;;12.88;11.18;;;;;;;;;;4993528;28;20458;-72
2022/09/23 06:44:31;;;;;;;17.65;11.93;;;;;;;;;;5006045;28;20045;-70
2022/09/23 06:46:57;;;;;;;19.80;12.27;;;;;;;;;;4997813;28;20026;-71
2022/09/23 06:49:25;;;;;;;17.17;11.30;;;;;;;;;;4983982;28;20549;-70
2022/09/23 06:51:51;;;;;;;14.23;10.75;;;;;;;;;;4980545;28;20050;-72
2022/09/23 06:54:18;;;;;;;14.50;11.25;;;;;;;;;;4990921;28;20356;-70
2022/09/23 06:56:46;;;;;;;16.42;11.85;;;;;;;;;;4989674;28;20034;-71
2022/09/23 06:59:15;;;;;;;18.30;11.38;;;;;;;;;;4992716;28;20092;-74
2022/09/23 07:01:42;;;;;;;15.20;11.55;;;;;;;;;;4984478;28;20033;-71
2022/09/23 07:04:09;;;;;;;14.55;11.85;;;;;;;;;;4990329;28;20039;-72
2022/09/23 07:06:36;;;;;;;17.75;11.85;;;;;;;;;;4995411;28;20117;-74
2022/09/23 07:09:02;;;;;;;16.15;11.48;;;;;;;;;;4984858;28;20038;-72
2022/09/23 07:11:28;;;;;;;17.23;11.98;;;;;;;;;;4984381;28;20030;-72
2022/09/23 07:13:55;;;;;;;15.45;11.73;;;;;;;;;;4992093;28;20077;-74
2022/09/23 07:16:21;;;;;;;13.35;10.95;;;;;;;;;;4995070;28;20117;-71
2022/09/23 07:18:47;;;;;;;15.75;11.10;;;;;;;;;;4992370;28;20026;-72
2022/09/23 07:21:14;;;;;;;18.92;11.38;;;;;;;;;;4991960;28;20038;-70
2022/09/23 07:23:48;;;;;;;14.85;11.00;;;;;;;;;;4988733;28;20022;-70
2022/09/23 07:26:15;;;;;;;13.32;11.20;;;;;;;;;;4989754;28;20026;-72
2022/09/23 07:28:41;;;;;;;13.82;11.38;;;;;;;;;;4991317;28;20034;-72
2022/09/23 07:31:08;;;;;;;16.20;11.27;;;;;;;;;;4991717;28;20055;-71
2022/09/23 07:33:35;;;;;;;18.70;11.27;;;;;;;;;;4991917;28;20027;-71
2022/09/23 07:36:09;;;;;;;11.38;10.13;;;;;;;;;;4990290;28;20034;-72
2022/09/23 07:38:35;;;;;;;12.32;10.38;;;;;;;;;;4990395;28;20041;-73
2022/09/23 07:41:02;;;;;;;14.50;10.45;;;;;;;;;;4990022;28;20030;-72
2022/09/23 07:43:31;;;;;;;13.23;10.05;;;;;;;;;;4989806;28;20120;-71
2022/09/23 07:45:57;;;;;;;14.57;10.40;;;;;;;;;;4978755;28;20031;-71
2022/09/23 07:48:23;;;;;;;12.43;10.27;;;;;;;;;;4988003;28;20117;-71
2022/09/23 07:50:49;;;;;;;28.42;18.27;;;;;;;;;;4986060;28;20038;-70
2022/09/23 07:53:15;;;;;;;15.60;10.02;;;;;;;;;;4988294;28;20038;-72
2022/09/23 07:55:42;;;;;;;10.82;8.75;;;;;;;;;;4982141;28;20026;-71
2022/09/23 07:58:08;;;;;;;12.65;9.98;;;;;;;;;;4983896;28;20038;-74
2022/09/23 08:00:35;;;;;;;14.30;10.45;;;;;;;;;;4989306;28;20042;-71
2022/09/23 08:03:01;;;;;;;12.07;9.57;;;;;;;;;;4992359;28;20026;-71
2022/09/23 08:05:27;;;;;;;12.85;9.73;;;;;;;;;;4992330;28;20030;-71
2022/09/23 08:07:53;;;;;;;13.30;10.63;;;;;;;;;;4994526;28;20065;-71
2022/09/23 08:10:20;;;;;;;13.60;9.50;;;;;;;;;;5002278;28;20099;-71
2022/09/23 08:12:47;;;;;;;14.07;10.57;;;;;;;;;;4993888;28;20129;-71
2022/09/23 08:15:13;;;;;;;14.93;10.13;;;;;;;;;;4994205;28;20030;-72
2022/09/23 08:17:39;;;;;;;17.63;11.02;;;;;;;;;;4987812;28;20054;-72
2022/09/23 08:20:06;;;;;;;14.10;10.15;;;;;;;;;;4993962;28;20025;-72
2022/09/23 08:22:32;;;;;;;14.25;10.23;;;;;;;;;;5005690;28;20142;-73
2022/09/23 08:24:58;;;;;;;13.00;9.43;;;;;;;;;;4992554;28;20034;-71
2022/09/23 08:27:26;;;;;;;17.55;9.77;;;;;;;;;;4996233;28;20029;-73
2022/09/23 08:29:52;;;;;;;12.95;9.60;;;;;;;;;;4993743;28;20133;-72
2022/09/23 08:32:18;;;;;;;12.65;9.18;;;;;;;;;;4997337;28;20042;-73
2022/09/23 08:34:45;;;;;;;13.45;9.90;;;;;;;;;;4986313;28;20039;-74
2022/09/23 08:37:11;;;;;;;16.17;10.05;;;;;;;;;;4977023;28;20058;-73
2022/09/23 08:39:37;;;;;;;16.25;9.98;;;;;;;;;;4987466;28;20029;-72
2022/09/23 08:42:06;;;;;;;14.45;10.25;;;;;;;;;;4994062;28;20038;-72
2022/09/23 08:44:51;;;;;;;13.63;9.75;;;;;;;;;;4999042;28;20032;-72
2022/09/23 08:47:36;;;;;;;14.25;9.18;;;;;;;;;;4989013;28;20050;-71
2022/09/23 08:50:16;;;;;;;12.80;8.73;;;;;;;;;;4985707;28;20049;-74
2022/09/23 08:52:46;;;;;;;20.30;14.48;;;;;;;;;;4994823;28;20383;-76
2022/09/23 08:55:13;;;;;;;13.98;8.88;;;;;;;;;;4999910;28;20049;-72
2022/09/23 08:57:50;;;;;;;19.75;9.48;;;;;;;;;;4993515;28;20474;-72
2022/09/23 09:00:21;;;;;;;10.55;8.40;;;;;;;;;;4991394;28;20023;-72
2022/09/23 09:02:48;;;;;;;11.63;8.98;;;;;;;;;;4994856;28;20042;-71
2022/09/23 09:05:17;;;;;;;11.45;8.20;;;;;;;;;;4985861;28;20030;-72
2022/09/23 09:07:43;;;;;;;13.32;8.32;;;;;;;;;;4990471;28;20037;-73
2022/09/23 09:10:20;;;;;;;11.90;8.88;;;;;;;;;;4976939;28;20038;-72
2022/09/23 09:12:48;;;;;;;14.68;8.82;;;;;;;;;;4981856;28;20463;-71
2022/09/23 09:15:28;;;;;;;11.75;8.55;;;;;;;;;;4988896;28;20521;-72
2022/09/23 09:18:01;;;;;;;12.63;9.18;;;;;;;;;;4987964;28;20035;-71
2022/09/23 09:20:39;;;;;;;12.07;9.20;;;;;;;;;;4995866;28;20439;-71
2022/09/23 09:23:11;;;;;;;13.60;8.20;;;;;;;;;;4990579;28;20030;-73
2022/09/23 09:25:49;;;;;;;14.27;11.18;;;;;;;;;;4986436;28;20038;-71
2022/09/23 09:28:18;;;;;;;10.40;7.90;;;;;;;;;;4999933;28;20031;-74
2022/09/23 09:30:46;;;;;;;13.82;8.93;;;;;;;;;;4998273;28;20046;-71
2022/09/23 09:33:17;;;;;;;14.15;8.48;;;;;;;;;;4993089;28;20030;-71
2022/09/23 09:35:49;;;;;;;14.30;9.05;;;;;;;;;;4991931;28;20497;-71
2022/09/23 09:38:15;;;;;;;15.07;9.63;;;;;;;;;;4998065;28;20054;-71
2022/09/23 09:40:44;;;;;;;11.48;8.60;;;;;;;;;;4974211;28;20821;-72
2022/09/23 09:43:20;;;;;;;10.98;9.15;;;;;;;;;;4986752;28;20097;-75
2022/09/23 09:45:54;;;;;;;12.27;9.23;;;;;;;;;;4978598;28;20533;-71
2022/09/23 09:48:30;;;;;;;18.73;9.35;;;;;;;;;;4994006;28;20045;-74
2022/09/23 09:50:56;;;;;;;13.98;8.85;;;;;;;;;;4981923;28;20046;-71
2022/09/23 09:53:24;;;;;;;11.45;9.20;;;;;;;;;;4992093;28;20061;-69
2022/09/23 09:56:00;;;;;;;13.15;8.60;;;;;;;;;;4995056;28;20038;-70
2022/09/23 09:58:28;;;;;;;13.80;8.02;;;;;;;;;;4988663;28;20039;-71
2022/09/23 10:00:55;;;;;;;15.57;9.80;;;;;;;;;;4979111;28;20458;-71
2022/09/23 10:03:30;;;;;;;13.27;8.95;;;;;;;;;;4992462;28;20048;-70
2022/09/23 10:05:56;;;;;;;12.80;9.57;;;;;;;;;;5000235;28;20035;-71
2022/09/23 10:08:25;;;;;;;14.90;8.30;;;;;;;;;;4988011;28;20029;-70
2022/09/23 10:10:53;;;;;;;15.65;9.27;;;;;;;;;;5007716;28;20038;-73
2022/09/23 10:13:20;;;;;;;16.17;10.25;;;;;;;;;;4988027;28;20029;-71
2022/09/23 10:15:47;;;;;;;13.07;9.88;;;;;;;;;;4988475;28;20482;-72
2022/09/23 10:18:34;;;;;;;11.70;8.73;;;;;;;;;;4988185;28;20057;-71
2022/09/23 10:21:07;;;;;;;15.32;8.93;;;;;;;;;;4992378;28;20036;-74
2022/09/23 10:23:33;;;;;;;14.88;9.52;;;;;;;;;;4989495;28;20113;-71
2022/09/23 10:26:05;;;;;;;16.13;9.45;;;;;;;;;;4986852;28;20061;-72
2022/09/23 10:28:37;;;;;;;15.00;9.93;;;;;;;;;;4991190;28;20030;-73
2022/09/23 10:31:05;;;;;;;14.23;9.45;;;;;;;;;;4984182;28;20133;-71
2022/09/23 10:33:31;;;;;;;18.55;9.68;;;;;;;;;;4977492;28;20030;-73
2022/09/23 10:35:57;;;;;;;22.85;10.43;;;;;;;;;;4988219;28;20113;-72
2022/09/23 10:38:23;;;;;;;21.95;10.65;;;;;;;;;;4990632;28;20363;-72
2022/09/23 10:46:46;;;;;;;15.77;9.68;;;;;;;;;;4942858;28;20479;-71
2022/09/23 10:49:30;;;;;;;14.15;10.63;;;;;;;;;;4946637;28;20035;-71
2022/09/23 10:52:02;;;;;;;17.45;10.93;;;;;;;;;;4973146;28;20103;-72
2022/09/23 10:54:41;;;;;;;22.52;11.43;;;;;;;;;;4987047;28;20030;-72
2022/09/23 11:00:09;;;;;;;15.63;10.43;;;;;;;;;;4991847;28;20045;-71
2022/09/23 11:02:35;;;;;;;36.00;22.63;;;;;;;;;;4990103;28;20756;-72
2022/09/23 11:05:18;;;;;;;28.40;18.15;;;;;;;;;;4991299;28;20481;-71
2022/09/23 11:07:48;;;;;;;18.20;11.27;;;;;;;;;;4983958;28;20037;-72
2022/09/23 11:10:47;;;;;;;11.98;10.20;;;;;;;;;;4989683;28;20041;-71
2022/09/23 11:13:23;;;;;;;16.85;12.20;;;;;;;;;;4974588;28;20390;-73
2022/09/23 11:15:55;;;;;;;16.15;11.77;;;;;;;;;;4989986;28;20477;-72
2022/09/23 11:18:21;;;;;;;22.25;11.63;;;;;;;;;;4992011;28;20034;-72
2022/09/23 11:20:53;;;;;;;16.80;12.05;;;;;;;;;;4990095;28;20062;-72
2022/09/23 11:23:43;;;;;;;18.73;11.68;;;;;;;;;;4979471;28;20125;-73
2022/09/23 11:26:12;;;;;;;16.27;11.25;;;;;;;;;;4989244;28;20121;-72
2022/09/23 11:28:41;;;;;;;17.00;11.23;;;;;;;;;;4982370;28;20038;-73
2022/09/23 11:31:18;;;;;;;22.50;12.18;;;;;;;;;;4987824;28;20097;-72
2022/09/23 11:34:03;;;;;;;15.30;12.43;;;;;;;;;;4989852;28;20490;-73
2022/09/23 11:36:31;;;;;;;18.83;11.93;;;;;;;;;;4981028;28;20041;-72
2022/09/23 11:39:00;;;;;;;18.02;11.65;;;;;;;;;;4990696;28;20034;-73
2022/09/23 11:41:28;;;;;;;18.75;11.88;;;;;;;;;;4979599;28;20034;-73
2022/09/23 11:44:07;;;;;;;17.55;12.10;;;;;;;;;;5004961;28;20030;-72
2022/09/23 11:46:53;;;;;;;21.92;13.00;;;;;;;;;;4984309;28;20034;-75
2022/09/23 11:49:25;;;;;;;14.05;11.95;;;;;;;;;;4962382;28;20043;-72
2022/09/23 11:52:10;;;;;;;16.63;13.05;;;;;;;;;;4983171;28;20027;-73
2022/09/23 11:54:39;;;;;;;17.92;12.45;;;;;;;;;;4990681;28;20145;-73
2022/09/23 11:57:09;;;;;;;22.13;13.40;;;;;;;;;;5009939;28;20118;-74
2022/09/23 11:59:36;;;;;;;19.23;12.57;;;;;;;;;;4988141;28;20023;-73
2022/09/23 12:02:13;;;;;;;18.30;13.93;;;;;;;;;;4976893;28;20055;-72
2022/09/23 12:04:41;;;;;;;22.38;13.30;;;;;;;;;;4988220;28;20035;-74
2022/09/23 12:07:07;;;;;;;20.63;13.18;;;;;;;;;;4991200;28;20061;-72
2022/09/23 12:09:49;;;;;;;19.35;13.15;;;;;;;;;;4990461;28;20035;-75
2022/09/23 12:12:47;;;;;;;18.35;13.35;;;;;;;;;;4986774;28;20372;-74
2022/09/23 12:15:13;;;;;;;20.65;13.95;;;;;;;;;;4950743;28;20053;-73
2022/09/23 12:18:06;;;;;;;21.23;14.68;;;;;;;;;;4988414;28;20041;-72
2022/09/23 12:20:48;;;;;;;21.05;14.20;;;;;;;;;;4986218;28;20027;-72
2022/09/23 12:23:33;;;;;;;26.27;15.85;;;;;;;;;;4990391;28;20355;-74
2022/09/23 12:26:05;;;;;;;21.48;13.82;;;;;;;;;;4992155;28;20048;-72
2022/09/23 12:28:34;;;;;;;22.85;14.27;;;;;;;;;;4989442;28;20029;-73
2022/09/23 12:31:01;;;;;;;17.17;11.90;;;;;;;;;;4988302;28;20058;-74
2022/09/23 12:33:32;;;;;;;19.83;14.20;;;;;;;;;;5009528;28;20033;-72
2022/09/23 12:36:11;;;;;;;17.20;12.50;;;;;;;;;;5009011;28;20537;-72
2022/09/23 12:38:37;;;;;;;22.45;14.23;;;;;;;;;;5008306;28;20037;-74
2022/09/23 12:41:19;;;;;;;22.60;13.75;;;;;;;;;;4993720;28;20083;-73
2022/09/23 12:44:12;;;;;;;19.95;13.63;;;;;;;;;;5010975;28;20030;-74
2022/09/23 12:46:39;;;;;;;22.48;13.75;;;;;;;;;;5006530;28;20046;-73
2022/09/23 12:49:09;;;;;;;18.17;14.90;;;;;;;;;;5007091;28;20029;-73
2022/09/23 12:51:37;;;;;;;28.38;15.60;;;;;;;;;;5008861;28;20041;-71
2022/09/23 12:54:03;;;;;;;23.52;14.73;;;;;;;;;;5014328;28;20030;-72
2022/09/23 12:56:38;;;;;;;22.70;14.52;;;;;;;;;;5014404;28;20084;-72
2022/09/23 12:59:22;;;;;;;20.10;13.95;;;;;;;;;;5011712;28;20072;-72
2022/09/23 13:01:49;;;;;;;20.98;14.73;;;;;;;;;;5008750;28;20042;-72
2022/09/23 13:07:25;;;;;;;22.98;14.98;;;;;;;;;;5015572;28;20040;-72
2022/09/23 13:09:52;;;;;;;20.42;15.25;;;;;;;;;;4999464;28;20030;-71
2022/09/23 13:12:20;;;;;;;24.63;15.18;;;;;;;;;;4992150;28;20034;-75
2022/09/23 13:14:48;;;;;;;20.38;15.45;;;;;;;;;;5010753;28;20038;-72
2022/09/23 13:17:24;;;;;;;25.42;15.13;;;;;;;;;;4992823;28;20116;-76
2022/09/23 13:19:58;;;;;;;21.45;15.73;;;;;;;;;;4996177;28;20477;-72
2022/09/23 13:22:58;;;;;;;20.98;14.88;;;;;;;;;;5012588;28;20057;-72
2022/09/23 13:25:26;;;;;;;20.13;14.20;;;;;;;;;;5008336;28;20437;-73
2022/09/23 13:27:54;;;;;;;19.02;13.57;;;;;;;;;;5007612;28;20028;-73
2022/09/23 13:30:22;;;;;;;20.50;14.13;;;;;;;;;;5013362;28;20049;-72
2022/09/23 13:32:50;;;;;;;19.95;15.10;;;;;;;;;;5017376;28;20162;-72
2022/09/23 13:35:22;;;;;;;20.13;14.35;;;;;;;;;;4997220;28;20052;-72
2022/09/23 13:37:49;;;;;;;19.60;13.77;;;;;;;;;;5004950;28;20149;-72
2022/09/23 13:40:22;;;;;;;20.45;13.75;;;;;;;;;;5012456;28;20029;-72
2022/09/23 13:42:59;;;;;;;18.13;13.50;;;;;;;;;;5003560;28;20065;-73
2022/09/23 13:45:26;;;;;;;18.80;14.65;;;;;;;;;;5011722;28;20022;-71
2022/09/23 13:47:54;;;;;;;20.42;14.25;;;;;;;;;;5008923;28;20048;-70
2022/09/23 13:50:22;;;;;;;23.35;13.88;;;;;;;;;;5010643;28;20026;-72
2022/09/23 13:53:00;;;;;;;21.50;13.85;;;;;;;;;;5012179;28;20038;-70
2022/09/23 13:55:31;;;;;;;21.25;14.57;;;;;;;;;;5008776;28;20026;-72
2022/09/23 13:58:02;;;;;;;20.75;13.40;;;;;;;;;;5005493;28;20461;-73
2022/09/23 14:00:34;;;;;;;21.77;16.10;;;;;;;;;;5008855;28;20105;-71
2022/09/23 14:03:00;;;;;;;21.63;15.85;;;;;;;;;;5016966;28;20033;-71
2022/09/23 14:05:30;;;;;;;19.83;14.35;;;;;;;;;;5003206;28;20057;-74
2022/09/23 14:07:56;;;;;;;16.90;12.82;;;;;;;;;;5006532;28;20033;-72
2022/09/23 14:10:24;;;;;;;20.55;13.57;;;;;;;;;;5007850;28;20038;-71
2022/09/23 14:12:52;;;;;;;23.75;13.70;;;;;;;;;;5009629;28;20084;-72
2022/09/23 14:15:19;;;;;;;18.88;12.65;;;;;;;;;;5000103;28;20096;-73
2022/09/23 14:17:46;;;;;;;19.20;12.27;;;;;;;;;;5012039;28;20465;-72
2022/09/23 14:20:13;;;;;;;16.02;12.02;;;;;;;;;;4995209;28;20037;-73
2022/09/23 14:22:39;;;;;;;17.15;13.23;;;;;;;;;;5006668;28;20026;-72
2022/09/23 14:25:12;;;;;;;16.48;12.68;;;;;;;;;;5006775;28;20030;-73
2022/09/23 14:27:40;;;;;;;17.30;13.57;;;;;;;;;;5015643;28;20028;-72
2022/09/23 14:30:06;;;;;;;20.50;13.68;;;;;;;;;;5025171;28;20433;-73
2022/09/23 14:32:32;;;;;;;22.23;13.68;;;;;;;;;;4993269;28;20038;-70
2022/09/23 14:35:02;;;;;;;19.42;13.85;;;;;;;;;;5012074;28;20033;-72
2022/09/23 14:40:22;;;;;;;19.75;13.48;;;;;;;;;;5011653;28;20141;-72
2022/09/23 14:42:50;;;;;;;18.20;13.13;;;;;;;;;;4993788;28;20137;-72
2022/09/23 14:45:19;;;;;;;18.58;13.55;;;;;;;;;;5011421;28;20104;-72
2022/09/23 14:47:47;;;;;;;18.42;13.80;;;;;;;;;;4994664;28;20129;-72
2022/09/23 14:50:35;;;;;;;19.98;13.07;;;;;;;;;;5008497;28;20018;-73
2022/09/23 14:53:02;;;;;;;20.90;12.57;;;;;;;;;;5006220;28;20049;-71
2022/09/23 14:55:29;;;;;;;17.13;13.35;;;;;;;;;;5009629;28;20092;-74